createdAt,value
2019-02-22T00:00:44.014Z,101647.69
2019-02-22T00:03:12.666Z,101651.59
2019-02-22T00:05:41.902Z,101650.53
2019-02-22T00:08:10.467Z,101653.62
2019-02-22T00:10:40.946Z,101655.58
2019-02-22T00:13:09.381Z,101655.81
2019-02-22T00:15:38.201Z,101652.55
2019-02-22T00:18:06.917Z,101650.33
2019-02-22T00:20:35.421Z,101641.69
2019-02-22T00:23:04.150Z,101643.00
2019-02-22T00:25:32.651Z,101638.13
2019-02-22T00:28:01.353Z,101641.22
2019-02-22T00:30:30.485Z,101645.41
2019-02-22T00:32:59.265Z,101642.73
2019-02-22T00:35:28.021Z,101642.34
2019-02-22T00:37:56.510Z,101647.57
2019-02-22T00:40:25.829Z,101646.41
2019-02-22T00:42:54.618Z,101655.20
2019-02-22T00:45:23.505Z,101652.41
2019-02-22T00:47:52.229Z,101653.78
2019-02-22T00:50:21.801Z,101658.59
2019-02-22T00:52:50.361Z,101663.58
2019-02-22T00:55:19.078Z,101659.81
2019-02-22T00:57:47.611Z,101662.09
2019-02-22T01:00:16.124Z,101669.68
2019-02-22T01:02:44.563Z,101669.02
2019-02-22T01:05:13.073Z,101661.21
2019-02-22T01:07:41.812Z,101661.20
2019-02-22T01:10:10.421Z,101662.03
2019-02-22T01:12:39.148Z,101668.64
2019-02-22T01:15:08.491Z,101668.70
2019-02-22T01:17:36.922Z,101666.41
2019-02-22T01:20:06.500Z,101672.88
2019-02-22T01:22:35.294Z,101668.18
2019-02-22T01:25:03.880Z,101669.97
2019-02-22T01:27:32.313Z,101674.45
2019-02-22T01:30:00.815Z,101666.66
2019-02-22T01:32:29.215Z,101677.23
2019-02-22T01:34:57.667Z,101676.73
2019-02-22T01:37:26.425Z,101678.50
2019-02-22T01:39:54.865Z,101672.33
2019-02-22T01:42:23.283Z,101676.35
2019-02-22T01:44:51.737Z,101687.77
2019-02-22T01:47:20.246Z,101688.20
2019-02-22T01:49:49.034Z,101684.16
2019-02-22T01:52:17.497Z,101694.72
2019-02-22T01:54:45.924Z,101701.44
2019-02-22T01:57:14.367Z,101704.53
2019-02-22T01:59:42.940Z,101697.55
2019-02-22T02:02:11.357Z,101701.01
2019-02-22T02:04:39.786Z,101703.10
2019-02-22T02:07:08.249Z,101704.90
2019-02-22T02:09:36.749Z,101702.67
2019-02-22T02:12:05.561Z,101699.14
2019-02-22T02:14:34.032Z,101704.34
2019-02-22T02:17:02.463Z,101710.53
2019-02-22T02:19:30.893Z,101711.72
2019-02-22T02:21:59.348Z,101711.30
2019-02-22T02:24:27.777Z,101700.20
2019-02-22T02:26:56.214Z,101708.13
2019-02-22T02:29:24.681Z,101705.98
2019-02-22T02:31:54.730Z,101713.88
2019-02-22T02:34:23.156Z,101713.52
2019-02-22T02:36:51.713Z,101707.42
2019-02-22T02:39:20.141Z,101711.83
2019-02-22T02:41:48.573Z,101704.80
2019-02-22T02:44:17.029Z,101708.34
2019-02-22T02:46:45.464Z,101704.61
2019-02-22T02:49:13.981Z,101701.59
2019-02-22T02:51:42.439Z,101708.20
2019-02-22T02:54:10.968Z,101705.30
2019-02-22T02:56:39.399Z,101709.34
2019-02-22T02:59:07.864Z,101712.47
2019-02-22T03:01:36.294Z,101711.14
2019-02-22T03:04:24.261Z,101712.04
2019-02-22T03:07:11.817Z,101708.94
2019-02-22T03:12:14.213Z,101712.48
2019-02-22T03:14:42.640Z,101712.45
2019-02-22T03:17:11.094Z,101723.54
2019-02-22T03:19:39.526Z,101721.28
2019-02-22T03:22:07.953Z,101723.90
2019-02-22T03:24:36.801Z,101724.34
2019-02-22T03:27:24.601Z,101730.57
2019-02-22T03:32:27.519Z,101740.28
2019-02-22T03:37:30.383Z,101740.72
2019-02-22T03:40:18.134Z,101743.34
2019-02-22T03:42:46.586Z,101747.76
2019-02-22T03:48:08.763Z,101749.94
2019-02-22T03:50:37.219Z,101754.38
2019-02-22T03:53:24.770Z,101757.03
2019-02-22T03:56:12.568Z,101756.58
2019-02-22T03:58:41.070Z,101755.67
2019-02-22T04:01:09.508Z,101764.56
2019-02-22T04:03:57.160Z,101756.98
2019-02-22T04:06:44.780Z,101763.63
2019-02-22T04:09:13.321Z,101757.86
2019-02-22T04:11:45.544Z,101755.22
2019-02-22T04:14:12.242Z,101762.27
2019-02-22T04:16:40.703Z,101772.95
2019-02-22T04:19:09.138Z,101774.30
2019-02-22T04:21:37.667Z,101767.20
2019-02-22T04:24:06.154Z,101769.88
2019-02-22T04:26:34.597Z,101777.38
2019-02-22T04:29:03.035Z,101771.17
2019-02-22T04:31:31.567Z,101776.51
2019-02-22T04:34:19.202Z,101774.28
2019-02-22T04:36:47.673Z,101770.75
2019-02-22T04:39:16.114Z,101767.64
2019-02-22T04:41:44.550Z,101775.62
2019-02-22T04:44:13.366Z,101778.70
2019-02-22T04:46:41.820Z,101783.16
2019-02-22T04:49:10.257Z,101782.70
2019-02-22T04:54:13.235Z,101781.83
2019-02-22T04:59:15.394Z,101783.59
2019-02-22T05:01:43.826Z,101782.69
2019-02-22T05:04:12.581Z,101786.22
2019-02-22T05:06:41.020Z,101794.23
2019-02-22T05:09:09.454Z,101788.47
2019-02-22T05:11:37.931Z,101788.45
2019-02-22T05:14:06.370Z,101787.13
2019-02-22T05:16:34.911Z,101784.48
2019-02-22T05:19:03.404Z,101776.96
2019-02-22T05:21:31.815Z,101788.45
2019-02-22T05:24:19.486Z,101790.20
2019-02-22T05:26:47.928Z,101792.87
2019-02-22T05:29:16.373Z,101785.77
2019-02-22T05:31:44.844Z,101794.19
2019-02-22T05:34:13.280Z,101800.84
2019-02-22T05:36:44.154Z,101807.94
2019-02-22T05:39:18.945Z,101808.84
2019-02-22T05:41:42.237Z,101809.72
2019-02-22T05:44:10.752Z,101810.17
2019-02-22T05:46:39.218Z,101817.25
2019-02-22T05:49:07.663Z,101821.69
2019-02-22T05:51:55.454Z,101830.09
2019-02-22T05:54:23.894Z,101830.09
2019-02-22T05:57:14.222Z,101845.16
2019-02-22T05:59:42.046Z,101848.69
2019-02-22T06:02:10.844Z,101856.22
2019-02-22T06:04:39.304Z,101860.22
2019-02-22T06:07:08.104Z,101867.30
2019-02-22T06:09:36.543Z,101869.95
2019-02-22T06:14:58.240Z,101887.69
2019-02-22T06:17:26.675Z,101897.86
2019-02-22T06:19:55.137Z,101896.97
2019-02-22T06:22:29.644Z,101893.88
2019-02-22T06:24:53.732Z,101910.25
2019-02-22T06:27:22.230Z,101904.06
2019-02-22T06:29:50.661Z,101914.66
2019-02-22T06:32:19.093Z,101907.61
2019-02-22T06:34:47.569Z,101909.81
2019-02-22T06:37:16.008Z,101911.13
2019-02-22T06:39:44.446Z,101910.24
2019-02-22T06:44:47.291Z,101909.80
2019-02-22T06:47:15.866Z,101908.91
2019-02-22T06:49:44.646Z,101909.34
2019-02-22T06:52:14.502Z,101915.11
2019-02-22T06:57:17.069Z,101932.81
2019-02-22T06:59:45.834Z,101937.67
2019-02-22T07:02:14.295Z,101940.33
2019-02-22T07:04:43.002Z,101941.22
2019-02-22T07:07:11.445Z,101937.67
2019-02-22T07:09:39.914Z,101937.69
2019-02-22T07:12:28.238Z,101938.60
2019-02-22T07:15:15.943Z,101929.74
2019-02-22T07:17:44.383Z,101933.28
2019-02-22T07:20:12.899Z,101931.97
2019-02-22T07:22:41.552Z,101931.52
2019-02-22T07:25:50.410Z,101934.17
2019-02-22T07:28:18.879Z,101940.80
2019-02-22T07:30:47.328Z,101949.22
2019-02-22T07:33:15.772Z,101951.44
2019-02-22T07:35:44.279Z,101953.24
2019-02-22T07:38:12.815Z,101950.98
2019-02-22T07:40:41.257Z,101957.64
2019-02-22T07:43:09.763Z,101958.95
2019-02-22T07:45:38.195Z,101956.77
2019-02-22T07:48:06.724Z,101958.11
2019-02-22T07:50:35.267Z,101960.34
2019-02-22T07:53:03.669Z,101964.74
2019-02-22T07:55:32.180Z,101962.55
2019-02-22T07:58:00.654Z,101962.98
2019-02-22T08:00:29.393Z,101963.88
2019-02-22T08:02:57.830Z,101967.42
2019-02-22T08:05:26.699Z,101974.92
2019-02-22T08:07:55.138Z,101983.33
2019-02-22T08:10:26.180Z,101982.02
2019-02-22T08:12:54.189Z,101987.35
2019-02-22T08:15:22.627Z,101982.91
2019-02-22T08:17:51.085Z,101993.55
2019-02-22T08:20:19.734Z,101993.54
2019-02-22T08:22:48.559Z,101995.32
2019-02-22T08:25:17.023Z,101995.73
2019-02-22T08:27:53.861Z,101997.97
2019-02-22T08:30:15.989Z,102005.05
2019-02-22T08:32:44.430Z,102004.58
2019-02-22T08:35:13.004Z,102007.69
2019-02-22T08:37:41.438Z,102012.12
2019-02-22T08:40:10.821Z,102007.23
2019-02-22T08:42:39.317Z,102008.10
2019-02-22T08:45:09.853Z,102011.23
2019-02-22T08:47:38.421Z,102016.97
2019-02-22T08:50:08.025Z,102024.95
2019-02-22T08:52:36.474Z,102027.13
2019-02-22T08:55:06.154Z,102026.23
2019-02-22T08:57:35.142Z,102032.47
2019-02-22T09:00:04.394Z,102028.51
2019-02-22T09:02:33.194Z,102036.46
2019-02-22T09:05:01.651Z,102038.19
2019-02-22T09:07:30.106Z,102037.71
2019-02-22T09:09:58.567Z,102047.47
2019-02-22T09:12:27.026Z,102049.23
2019-02-22T09:14:55.457Z,102040.36
2019-02-22T09:17:23.895Z,102031.90
2019-02-22T09:19:52.601Z,102035.42
2019-02-22T09:22:23.161Z,102045.59
2019-02-22T09:24:51.235Z,102052.68
2019-02-22T09:27:19.798Z,102057.99
2019-02-22T09:29:58.531Z,102053.12
2019-02-22T09:32:18.745Z,102048.62
2019-02-22T09:34:47.545Z,102054.80
2019-02-22T09:37:15.987Z,102057.52
2019-02-22T09:39:44.508Z,102065.05
2019-02-22T09:42:13.397Z,102066.34
2019-02-22T09:44:42.181Z,102074.34
2019-02-22T09:47:10.663Z,102064.54
2019-02-22T09:49:39.205Z,102077.34
2019-02-22T09:52:07.635Z,102073.75
2019-02-22T09:54:36.071Z,102074.20
2019-02-22T09:57:04.599Z,102077.69
2019-02-22T09:59:33.125Z,102083.94
2019-02-22T10:02:01.597Z,102078.94
2019-02-22T10:04:30.135Z,102078.91
2019-02-22T10:06:58.684Z,102075.36
2019-02-22T10:09:27.123Z,102076.07
2019-02-22T10:11:55.607Z,102074.84
2019-02-22T10:14:24.130Z,102076.60
2019-02-22T10:16:52.561Z,102073.58
2019-02-22T10:19:21.345Z,102076.27
2019-02-22T10:21:49.785Z,102074.02
2019-02-22T10:24:18.220Z,102077.13
2019-02-22T10:26:46.807Z,102085.36
2019-02-22T10:29:15.239Z,102083.17
2019-02-22T10:31:43.670Z,102080.97
2019-02-22T10:34:12.141Z,102081.52
2019-02-22T10:36:45.108Z,102077.34
2019-02-22T10:39:11.118Z,102081.27
2019-02-22T10:41:39.664Z,102088.41
2019-02-22T10:44:17.436Z,102088.41
2019-02-22T10:46:38.416Z,102094.64
2019-02-22T10:49:06.892Z,102097.38
2019-02-22T10:51:35.711Z,102105.84
2019-02-22T10:54:04.233Z,102095.64
2019-02-22T10:56:32.687Z,102091.38
2019-02-22T10:59:01.130Z,102099.07
2019-02-22T11:01:29.629Z,102104.97
2019-02-22T11:03:58.591Z,102103.59
2019-02-22T11:06:27.330Z,102111.30
2019-02-22T11:08:55.756Z,102113.20
2019-02-22T11:11:24.380Z,102113.31
2019-02-22T11:13:52.809Z,102114.21
2019-02-22T11:16:21.347Z,102116.77
2019-02-22T11:18:49.946Z,102112.31
2019-02-22T11:21:18.379Z,102121.67
2019-02-22T11:23:46.803Z,102117.69
2019-02-22T11:26:15.344Z,102120.75
2019-02-22T11:28:43.777Z,102121.77
2019-02-22T11:31:14.447Z,102123.55
2019-02-22T11:33:42.680Z,102121.32
2019-02-22T11:36:11.127Z,102120.47
2019-02-22T11:38:39.536Z,102118.64
2019-02-22T11:41:08.424Z,102123.00
2019-02-22T11:43:36.858Z,102128.31
2019-02-22T11:46:05.642Z,102113.20
2019-02-22T11:48:34.195Z,102122.54
2019-02-22T11:51:02.914Z,102128.13
2019-02-22T11:53:31.415Z,102116.64
2019-02-22T11:55:59.936Z,102116.55
2019-02-22T11:58:29.187Z,102124.44
2019-02-22T12:00:57.990Z,102121.77
2019-02-22T12:03:26.811Z,102114.09
2019-02-22T12:05:55.235Z,102117.41
2019-02-22T12:08:23.669Z,102120.78
2019-02-22T12:10:52.203Z,102119.05
2019-02-22T12:13:21.009Z,102121.73
2019-02-22T12:15:49.444Z,102122.41
2019-02-22T12:18:18.559Z,102124.70
2019-02-22T12:20:46.987Z,102125.11
2019-02-22T12:23:15.411Z,102123.33
2019-02-22T12:25:44.581Z,102130.19
2019-02-22T12:28:13.181Z,102128.56
2019-02-22T12:30:41.688Z,102135.13
2019-02-22T12:33:10.182Z,102134.06
2019-02-22T12:35:38.693Z,102137.06
2019-02-22T12:38:07.235Z,102133.20
2019-02-22T12:40:38.211Z,102146.84
2019-02-22T12:43:07.322Z,102140.85
2019-02-22T12:45:35.922Z,102147.00
2019-02-22T12:48:04.448Z,102153.29
2019-02-22T12:50:32.868Z,102154.67
2019-02-22T12:53:01.324Z,102162.93
2019-02-22T12:55:29.833Z,102165.66
2019-02-22T12:57:58.679Z,102160.89
2019-02-22T13:00:27.125Z,102164.45
2019-02-22T13:03:02.175Z,102165.60
2019-02-22T13:05:30.712Z,102172.77
2019-02-22T13:07:59.141Z,102161.52
2019-02-22T13:10:29.467Z,102166.56
2019-02-22T13:12:57.949Z,102159.61
2019-02-22T13:15:26.547Z,102160.69
2019-02-22T13:17:55.080Z,102172.67
2019-02-22T13:20:23.511Z,102160.99
2019-02-22T13:22:51.944Z,102159.35
2019-02-22T13:25:20.413Z,102161.55
2019-02-22T13:27:48.855Z,102166.83
2019-02-22T13:30:18.429Z,102169.95
2019-02-22T13:32:47.156Z,102161.97
2019-02-22T13:35:15.665Z,102162.58
2019-02-22T13:37:44.197Z,102161.06
2019-02-22T13:40:31.993Z,102167.20
2019-02-22T13:43:00.516Z,102169.23
2019-02-22T13:45:28.957Z,102159.31
2019-02-22T13:51:09.830Z,102170.66
2019-02-22T13:53:38.318Z,102171.25
2019-02-22T13:56:06.843Z,102173.04
2019-02-22T13:58:35.361Z,102177.72
2019-02-22T14:01:03.920Z,102178.14
2019-02-22T14:03:32.367Z,102179.23
2019-02-22T14:06:02.723Z,102180.15
2019-02-22T14:08:30.984Z,102179.64
2019-02-22T14:10:59.744Z,102184.97
2019-02-22T14:13:28.557Z,102180.48
2019-02-22T14:18:31.526Z,102186.89
2019-02-22T14:20:59.987Z,102200.73
2019-02-22T14:23:28.420Z,102195.37
2019-02-22T14:25:56.864Z,102196.17
2019-02-22T14:28:25.320Z,102200.06
2019-02-22T14:30:53.743Z,102200.72
2019-02-22T14:33:22.173Z,102203.54
2019-02-22T14:35:50.756Z,102208.48
2019-02-22T14:38:19.496Z,102212.51
2019-02-22T14:40:48.034Z,102220.17
2019-02-22T14:43:17.044Z,102213.53
2019-02-22T14:45:50.852Z,102218.38
2019-02-22T14:48:36.145Z,102220.14
2019-02-22T14:51:05.528Z,102214.38
2019-02-22T14:53:33.977Z,102215.73
2019-02-22T14:56:02.474Z,102222.85
2019-02-22T14:58:30.892Z,102222.85
2019-02-22T15:00:59.315Z,102222.85
2019-02-22T15:03:27.878Z,102220.13
2019-02-22T15:05:56.301Z,102229.39
2019-02-22T15:08:24.727Z,102224.15
2019-02-22T15:10:53.182Z,102224.59
2019-02-22T15:13:21.609Z,102227.33
2019-02-22T15:16:09.186Z,102229.07
2019-02-22T15:18:37.704Z,102239.30
2019-02-22T15:21:06.129Z,102229.87
2019-02-22T15:26:08.639Z,102233.46
2019-02-22T15:28:37.097Z,102241.57
2019-02-22T15:31:45.688Z,102243.77
2019-02-22T15:34:14.457Z,102240.26
2019-02-22T15:37:02.066Z,102241.20
2019-02-22T15:39:30.528Z,102238.97
2019-02-22T15:41:58.959Z,102237.66
2019-02-22T15:44:27.377Z,102236.77
2019-02-22T15:46:56.112Z,102239.46
2019-02-22T15:49:24.582Z,102232.80
2019-02-22T15:51:52.952Z,102236.82
2019-02-22T15:54:21.491Z,102237.72
2019-02-22T15:56:50.232Z,102246.13
2019-02-22T15:59:20.947Z,102237.27
2019-02-22T16:01:55.601Z,102236.39
2019-02-22T16:04:38.473Z,102239.89
2019-02-22T16:07:06.934Z,102237.70
2019-02-22T16:12:43.792Z,102235.97
2019-02-22T16:15:52.269Z,102233.26
2019-02-22T16:18:20.728Z,102230.61
2019-02-22T16:20:49.157Z,102231.53
2019-02-22T16:23:37.328Z,102231.12
2019-02-22T16:26:05.755Z,102231.55
2019-02-22T16:28:34.507Z,102230.21
2019-02-22T16:31:03.531Z,102230.23
2019-02-22T16:33:33.900Z,102227.58
2019-02-22T16:36:02.342Z,102234.70
2019-02-22T16:41:24.448Z,102234.25
2019-02-22T16:43:52.968Z,102233.83
2019-02-22T16:46:21.396Z,102244.91
2019-02-22T16:48:49.832Z,102248.45
2019-02-22T16:51:18.568Z,102246.68
2019-02-22T16:53:47.351Z,102248.47
2019-02-22T16:56:16.146Z,102242.67
2019-02-22T16:58:44.604Z,102239.13
2019-02-22T17:01:32.688Z,102233.81
2019-02-22T17:04:01.157Z,102235.08
2019-02-22T17:06:29.591Z,102234.20
2019-02-22T17:08:58.029Z,102232.38
2019-02-22T17:11:26.492Z,102236.38
2019-02-22T17:13:54.924Z,102233.71
2019-02-22T17:16:23.657Z,102239.42
2019-02-22T17:18:52.102Z,102238.39
2019-02-22T17:21:20.625Z,102239.27
2019-02-22T17:23:49.042Z,102247.47
2019-02-22T17:26:17.855Z,102252.23
2019-02-22T17:28:46.366Z,102255.41
2019-02-22T17:31:14.786Z,102253.53
2019-02-22T17:33:43.246Z,102262.29
2019-02-22T17:36:12.032Z,102262.26
2019-02-22T17:38:40.570Z,102264.80
2019-02-22T17:41:09.009Z,102267.68
2019-02-22T17:43:37.521Z,102272.26
2019-02-22T17:46:25.230Z,102272.27
2019-02-22T17:49:13.067Z,102273.84
2019-02-22T17:52:00.969Z,102271.17
2019-02-22T17:54:29.394Z,102279.86
2019-02-22T17:56:57.821Z,102281.17
2019-02-22T17:59:26.292Z,102286.23
2019-02-22T18:01:54.734Z,102286.59
2019-02-22T18:04:23.168Z,102297.84
2019-02-22T18:06:51.719Z,102292.90
2019-02-22T18:09:20.434Z,102292.77
2019-02-22T18:11:48.862Z,102295.60
2019-02-22T18:14:17.319Z,102295.38
2019-02-22T18:16:46.118Z,102299.09
2019-02-22T18:19:14.546Z,102296.48
2019-02-22T18:21:43.006Z,102292.95
2019-02-22T18:24:11.432Z,102300.22
2019-02-22T18:26:59.392Z,102303.24
2019-02-22T18:29:47.409Z,102298.66
2019-02-22T18:34:50.520Z,102296.27
2019-02-22T18:37:18.966Z,102296.95
2019-02-22T18:39:47.411Z,102301.96
2019-02-22T18:42:16.155Z,102297.41
2019-02-22T18:44:44.606Z,102300.70
2019-02-22T18:47:19.232Z,102308.79
2019-02-22T18:49:43.195Z,102309.68
2019-02-22T18:52:11.938Z,102314.98
2019-02-22T18:54:40.399Z,102317.15
2019-02-22T18:57:09.194Z,102320.36
2019-02-22T18:59:37.625Z,102320.63
2019-02-22T19:02:25.547Z,102319.66
2019-02-22T19:04:53.974Z,102323.19
2019-02-22T19:07:22.487Z,102321.77
2019-02-22T19:09:51.263Z,102323.78
2019-02-22T19:12:19.688Z,102323.46
2019-02-22T19:14:48.428Z,102322.39
2019-02-22T19:17:16.890Z,102329.83
2019-02-22T19:19:45.599Z,102333.78
2019-02-22T19:22:14.284Z,102339.63
2019-02-22T19:24:42.786Z,102329.30
2019-02-22T19:27:11.224Z,102336.13
2019-02-22T19:29:39.645Z,102329.83
2019-02-22T19:34:42.629Z,102342.40
2019-02-22T19:37:11.286Z,102344.61
2019-02-22T19:39:39.784Z,102346.52
2019-02-22T19:42:08.353Z,102343.56
2019-02-22T19:47:10.747Z,102359.20
2019-02-22T19:49:58.781Z,102365.00
2019-02-22T19:52:46.444Z,102364.91
2019-02-22T19:55:55.134Z,102360.80
2019-02-22T19:59:03.678Z,102367.14
2019-02-22T20:04:45.016Z,102371.83
2019-02-22T20:07:15.813Z,102379.26
2019-02-22T20:09:44.653Z,102376.69
2019-02-22T20:15:46.632Z,102378.25
2019-02-22T20:18:35.354Z,102377.77
2019-02-22T20:21:23.285Z,102377.88
2019-02-22T20:23:51.768Z,102383.42
2019-02-22T20:26:32.780Z,102383.85
2019-02-22T20:29:01.401Z,102391.84
2019-02-22T20:31:49.635Z,102402.27
2019-02-22T20:34:37.371Z,102396.97
2019-02-22T20:37:25.559Z,102399.11
2019-02-22T20:39:55.999Z,102388.38
2019-02-22T20:42:24.468Z,102393.78
2019-02-22T20:44:53.303Z,102398.30
2019-02-22T20:47:41.067Z,102389.66
2019-02-22T20:50:49.441Z,102392.93
2019-02-22T20:53:37.396Z,102397.08
2019-02-22T20:56:25.300Z,102401.22
2019-02-22T20:58:54.314Z,102402.31
2019-02-22T21:01:22.945Z,102410.41
2019-02-22T21:03:51.409Z,102409.13
2019-02-22T21:06:20.299Z,102419.03
2019-02-22T21:08:48.757Z,102413.27
2019-02-22T21:11:18.051Z,102418.72
2019-02-22T21:13:47.194Z,102415.97
2019-02-22T21:16:15.738Z,102409.17
2019-02-22T21:18:46.187Z,102409.57
2019-02-22T21:21:14.569Z,102415.08
2019-02-22T21:23:43.000Z,102411.94
2019-02-22T21:26:11.495Z,102405.30
2019-02-22T21:28:40.111Z,102403.44
2019-02-22T21:31:08.871Z,102408.14
2019-02-22T21:33:37.388Z,102404.88
2019-02-22T21:36:05.846Z,102397.98
2019-02-22T21:38:34.272Z,102395.11
2019-02-22T21:41:02.701Z,102400.38
2019-02-22T21:43:31.158Z,102395.70
2019-02-22T21:45:59.588Z,102401.36
2019-02-22T21:48:28.320Z,102398.28
2019-02-22T21:50:57.311Z,102390.30
2019-02-22T21:53:25.738Z,102397.98
2019-02-22T21:55:54.159Z,102400.24
2019-02-22T21:58:22.821Z,102398.41
2019-02-22T22:00:51.223Z,102402.92
2019-02-22T22:03:19.654Z,102405.97
2019-02-22T22:05:48.438Z,102404.98
2019-02-22T22:08:17.207Z,102394.89
2019-02-22T22:10:45.721Z,102392.81
2019-02-22T22:13:14.173Z,102393.84
2019-02-22T22:15:42.591Z,102392.28
2019-02-22T22:18:11.917Z,102393.17
2019-02-22T22:20:40.829Z,102391.69
2019-02-22T22:23:09.631Z,102386.66
2019-02-22T22:25:38.059Z,102390.89
2019-02-22T22:28:06.508Z,102381.26
2019-02-22T22:30:35.254Z,102388.52
2019-02-22T22:33:03.789Z,102378.98
2019-02-22T22:35:32.652Z,102379.40
2019-02-22T22:38:01.080Z,102376.83
2019-02-22T22:40:29.806Z,102387.32
2019-02-22T22:42:58.279Z,102390.83
2019-02-22T22:45:26.761Z,102391.48
2019-02-22T22:47:55.504Z,102390.31
2019-02-22T22:50:27.230Z,102390.05
2019-02-22T22:52:55.650Z,102391.04
2019-02-22T22:55:24.081Z,102393.25
2019-02-22T22:57:52.553Z,102396.78
2019-02-22T23:00:52.888Z,102397.27
2019-02-22T23:03:22.186Z,102400.91
2019-02-22T23:05:50.685Z,102414.00
2019-02-22T23:08:19.451Z,102408.76
2019-02-22T23:10:47.975Z,102404.70
2019-02-22T23:13:16.727Z,102411.73
2019-02-22T23:15:45.134Z,102417.97
2019-02-22T23:18:13.945Z,102421.96
2019-02-22T23:20:42.673Z,102426.08
2019-02-22T23:23:11.200Z,102431.79
2019-02-22T23:25:39.647Z,102432.96
2019-02-22T23:28:08.093Z,102444.66
2019-02-22T23:30:36.493Z,102446.38
2019-02-22T23:33:05.442Z,102452.48
2019-02-22T23:35:33.862Z,102452.19
2019-02-22T23:38:02.296Z,102465.33
2019-02-22T23:40:30.848Z,102475.17
2019-02-22T23:43:00.375Z,102475.50
2019-02-22T23:45:28.799Z,102476.69
2019-02-22T23:47:57.669Z,102476.52
2019-02-22T23:50:26.203Z,102475.62
2019-02-22T23:52:54.618Z,102480.08
2019-02-22T23:55:23.180Z,102482.42
2019-02-22T23:57:51.604Z,102476.06
